Expressjet E145 at Quebec City on Apr 15th 2014, runway excursion during taxi

Last Update: April 15, 2014 / 18:36:47 GMT/Zulu time

Bookmark this article
Incident Facts

Date of incident
Apr 15, 2014

Classification
Incident

Airline
Expressjet

Flight number
EV-5835

Aircraft Registration
N12540

Aircraft Type
Embraer ERJ-145

ICAO Type Designator
E145

An Expressjet Embraer ERJ-145 on behalf of United, registration N12540 performing flight EV-5835/UA-5835 (dep Apr 14th) from Chicago O'Hare,IL (USA) to Quebec City,QC (Canada) with 46 passengers and 3 crew, landed on Quebec's runway 24 and rolled out safely at 01:55L (05:55Z). The aircraft was subsequently instructed to vacate the runway via (intersecting) runway 11 and taxi to the terminal via taxiway D. The crew acknowledged, but a minute later called reporting their nose gear was on the grass.

The Canadian TSB reported the aircraft was expected to turn left onto runway 11 but made the turn about 150 feet before the intersection, the crew believing to already be on runway 11, and got stuck on grass. The passengers disembarked, then the aircraft was towed to the apron. There were no injuries and no damage to the aircraft.



Metars:
YQB 150700Z VRB02KT 3/8SM R06/1400FT/N FG BKN010 OVC032 05/04 A2962 RMK FG4ST1SC3 SLP032
CYQB 150631Z 00000KT 1/2SM R06/2200FT/N -RA FG OVC010 06/05 A2962 RMK FG6ST2 CIG RAG SLP032
CYQB 150600Z VRB02KT 5/8SM R06/1800FT/N -SHRA BR OVC012 05/05 A2963 RMK FG4SC4 SLP034
CYQB 150541Z 35002KT 1SM R06/1600FT/N -SHRA BR SCT006 OVC020 06/05 A2963 RMK FG3SF1SC4 VIS VRB 3/4-11/4 SLP034
CYQB 150500Z 36003KT 330V040 1SM R06/2000FT/U BR SCT006 OVC013 05/05 A2963 RMK SF4SC4 RAG CIG VIS VRBL 3/4- 11/4 SLP035
CYQB 150438Z 11003KT 310V110 1 1/2SM R06/1600V2600FT/U BR FEW003 BKN006 OVC020 06/06 A2962 RMK SF1SF5SC2 RAG CIG VIS VRBL 1-2 SLP033
CYQB 150400Z 06003KT 1 1/2SM R06/2200FT/D -SHRA BR SCT003 OVC006 05/05 A2963 RMK SF4SF4 RAG CIG SLP036
CYQB 150300Z 03006KT 5SM R06/3500VP6000FT/U -SHRA BR BKN003 OVC008 04/04 A2963 RMK SF5SF3 SLP038
CYQB 150232Z 36007KT 6SM R06/3000VP6000FT/D -SHRA BR SCT002 BKN006 OVC040 05/04A2964 RMK SF4SF3SC1 SLP039
CYQB 150200Z 13006KT 6SM R06/4000VP6000FT/U -SHRA BR BKN040 OVC060 05/04 A2963 RMK SC6SC2 TCU EMBD SLP036
Incident Facts

Date of incident
Apr 15, 2014

Classification
Incident

Airline
Expressjet

Flight number
EV-5835

Aircraft Registration
N12540

Aircraft Type
Embraer ERJ-145

ICAO Type Designator
E145

This article is published under license from Avherald.com. © of text by Avherald.com.
Article source

You can read 2 more free articles without a subscription.

Subscribe now and continue reading without any limits!

Are you a subscriber? Login
Subscribe

Read unlimited articles and receive our daily update briefing. Gain better insights into what is happening in commercial aviation safety.

Send tip

Support AeroInside by sending a small tip amount.

Related articles

Newest articles

Subscribe today

Are you researching aviation incidents? Get access to AeroInside Insights, unlimited read access and receive the daily newsletter.

Pick your plan and subscribe

Partner

Blockaviation logo

A new way to document and demonstrate airworthiness compliance and aircraft value. Find out more.

Virtual Speech logo

ELITE Simulation Solutions is a leading global provider of Flight Simulation Training Devices, IFR training software as well as flight controls and related services. Find out more.

AeroInside Blog
Popular aircraft
Airbus A320
Boeing 737-800
Boeing 737-800 MAX
Popular airlines
American Airlines
United
Delta
Air Canada
Lufthansa
British Airways